Time;durP1;ratioP1;P1;durP2;ratioP2;P2;SDS_P1;SDS_P2;PMS_P1;PMS_P2;Temp;Humidity;BMP_temperature;BMP_pressure;BME280_temperature;BME280_humidity;BME280_pressure;Samples;Min_cycle;Max_cycle;Signal;HPM_P1;HPM_P2
2023/09/27 00:00:52;;;;;;;;;;;;;;;12.90;100.00;101965.34;4980933;28;19994;-69
2023/09/27 00:03:17;;;;;;;;;;;;;;;12.89;100.00;101965.47;5000535;28;19917;-69
2023/09/27 00:05:42;;;;;;;;;;;;;;;12.92;100.00;101970.66;4984016;28;20150;-69
2023/09/27 00:08:07;;;;;;;;;;;;;;;12.95;100.00;101978.53;4998582;28;20056;-69
2023/09/27 00:10:33;;;;;;;;;;;;;;;12.88;100.00;101970.00;5001531;28;20390;-69
2023/09/27 00:12:58;;;;;;;;;;;;;;;12.80;100.00;101974.19;4997353;28;19922;-69
2023/09/27 00:15:23;;;;;;;;;;;;;;;12.70;100.00;101982.06;5006589;28;20018;-69
2023/09/27 00:17:49;;;;;;;;;;;;;;;12.69;100.00;101991.09;4998275;28;19960;-69
2023/09/27 00:20:18;;;;;;;;;;;;;;;12.71;100.00;101989.16;4985182;28;20023;-69
2023/09/27 00:22:43;;;;;;;;;;;;;;;12.70;100.00;101987.44;4978485;28;20268;-69
2023/09/27 00:25:11;;;;;;;;;;;;;;;12.65;100.00;101995.84;4984999;28;19928;-69
2023/09/27 00:27:39;;;;;;;;;;;;;;;12.65;100.00;101998.53;5001995;28;19921;-70
2023/09/27 00:30:07;;;;;;;;;;;;;;;12.60;100.00;101998.84;5001768;28;20028;-69
2023/09/27 00:32:32;;;;;;;;;;;;;;;12.59;100.00;101994.41;5001351;28;20418;-69
2023/09/27 00:34:57;;;;;;;;;;;;;;;12.62;100.00;101995.19;5000455;28;19925;-69
2023/09/27 00:37:23;;;;;;;;;;;;;;;12.58;100.00;102000.78;4999938;28;20422;-69
2023/09/27 00:39:49;;;;;;;;;;;;;;;12.53;100.00;101989.47;4984242;28;20809;-69
2023/09/27 00:42:14;;;;;;;;;;;;;;;12.52;100.00;101982.34;4996174;28;19927;-69
2023/09/27 00:44:39;;;;;;;;;;;;;;;12.50;100.00;101983.41;5002175;28;19917;-69
2023/09/27 00:47:05;;;;;;;;;;;;;;;12.45;100.00;101983.72;4997510;28;20030;-71
2023/09/27 00:49:30;;;;;;;;;;;;;;;12.40;100.00;101980.47;5004467;28;19968;-69
2023/09/27 00:51:55;;;;;;;;;;;;;;;12.37;100.00;101978.00;4995751;28;20056;-69
2023/09/27 00:54:20;;;;;;;;;;;;;;;12.33;100.00;101985.41;4982685;28;19974;-69
2023/09/27 00:56:47;;;;;;;;;;;;;;;12.30;100.00;101997.28;4997745;28;19922;-69
2023/09/27 00:59:12;;;;;;;;;;;;;;;12.33;100.00;101996.19;4982800;28;19926;-69
2023/09/27 01:01:38;;;;;;;;;;;;;;;12.37;100.00;101994.16;4998065;28;20239;-69
2023/09/27 01:04:03;;;;;;;;;;;;;;;12.40;100.00;101986.75;4999494;28;19921;-69
2023/09/27 01:06:28;;;;;;;;;;;;;;;12.42;100.00;101973.16;5000511;28;19921;-69
2023/09/27 01:08:53;;;;;;;;;;;;;;;12.43;100.00;101969.50;5003051;28;20458;-69
2023/09/27 01:11:19;;;;;;;;;;;;;;;12.41;100.00;101972.31;5001068;28;20372;-69
2023/09/27 01:13:44;;;;;;;;;;;;;;;12.37;100.00;101967.22;5010618;28;20398;-69
2023/09/27 01:16:09;;;;;;;;;;;;;;;12.24;100.00;101973.44;4986468;28;19928;-69
2023/09/27 01:18:34;;;;;;;;;;;;;;;12.04;100.00;101963.16;5005006;28;19972;-69
2023/09/27 01:21:00;;;;;;;;;;;;;;;12.12;100.00;101971.56;5001390;28;20020;-69
2023/09/27 01:23:25;;;;;;;;;;;;;;;12.11;100.00;101968.00;4985216;28;19960;-69
2023/09/27 01:25:54;;;;;;;;;;;;;;;12.10;100.00;101979.75;5001487;28;19921;-69
2023/09/27 01:28:21;;;;;;;;;;;;;;;12.10;100.00;101979.75;5000875;28;19921;-69
2023/09/27 01:30:46;;;;;;;;;;;;;;;12.14;100.00;101973.19;5001252;28;19922;-69
2023/09/27 01:33:12;;;;;;;;;;;;;;;12.24;100.00;101964.50;4985864;28;20261;-69
2023/09/27 01:35:41;;;;;;;;;;;;;;;12.29;100.00;101959.66;4991158;28;19928;-69
2023/09/27 01:38:07;;;;;;;;;;;;;;;12.32;100.00;101962.16;4985915;28;19921;-69
2023/09/27 01:40:35;;;;;;;;;;;;;;;12.35;100.00;101955.69;5000244;28;19972;-69
2023/09/27 01:43:01;;;;;;;;;;;;;;;12.34;100.00;101946.75;5000061;28;20264;-69
2023/09/27 01:45:26;;;;;;;;;;;;;;;12.36;100.00;101934.06;5001416;28;20312;-69
2023/09/27 01:47:51;;;;;;;;;;;;;;;12.38;100.00;101942.00;5005573;28;20380;-69
2023/09/27 01:50:19;;;;;;;;;;;;;;;12.34;100.00;101935.97;5000877;28;19921;-69
2023/09/27 01:52:48;;;;;;;;;;;;;;;12.20;100.00;101942.31;4982628;28;20383;-69
2023/09/27 01:55:13;;;;;;;;;;;;;;;11.97;100.00;101920.44;4988448;28;19928;-69
2023/09/27 01:57:38;;;;;;;;;;;;;;;12.12;100.00;101948.22;5004740;28;20319;-69
2023/09/27 02:00:06;;;;;;;;;;;;;;;12.20;100.00;101941.41;5000487;28;20540;-69
2023/09/27 02:02:32;;;;;;;;;;;;;;;12.19;100.00;101947.78;5002256;28;20257;-69
2023/09/27 02:04:57;;;;;;;;;;;;;;;12.02;100.00;101948.94;5001253;28;19941;-69
2023/09/27 02:07:23;;;;;;;;;;;;;;;11.95;100.00;101954.66;5008781;28;19928;-69
2023/09/27 02:09:48;;;;;;;;;;;;;;;11.86;100.00;101941.81;5006388;28;19961;-69
2023/09/27 02:12:13;;;;;;;;;;;;;;;11.76;100.00;101943.41;5003350;28;20051;-69
2023/09/27 02:14:38;;;;;;;;;;;;;;;11.70;100.00;101942.84;5005656;28;19956;-69
2023/09/27 02:17:04;;;;;;;;;;;;;;;11.66;100.00;101946.69;4985484;28;20015;-70
2023/09/27 02:19:29;;;;;;;;;;;;;;;11.65;100.00;101938.72;5003646;28;19922;-69
2023/09/27 02:21:54;;;;;;;;;;;;;;;11.65;100.00;101938.72;5002462;28;20387;-69
2023/09/27 02:24:20;;;;;;;;;;;;;;;11.68;100.00;101944.75;5000246;28;20308;-69
2023/09/27 02:26:45;;;;;;;;;;;;;;;11.73;100.00;101940.91;5006973;28;20032;-69
2023/09/27 02:29:10;;;;;;;;;;;;;;;11.77;100.00;101943.28;5000252;28;20519;-69
2023/09/27 02:31:36;;;;;;;;;;;;;;;11.80;100.00;101951.16;5004075;28;19982;-70
2023/09/27 02:34:01;;;;;;;;;;;;;;;11.83;100.00;101947.38;5003568;28;19964;-69
2023/09/27 02:36:26;;;;;;;;;;;;;;;11.89;100.00;101954.22;5010994;28;19925;-69
2023/09/27 02:38:51;;;;;;;;;;;;;;;11.96;100.00;101950.13;4984974;28;19921;-69
2023/09/27 02:41:16;;;;;;;;;;;;;;;12.00;100.00;101938.25;4998953;28;19921;-69
2023/09/27 02:43:42;;;;;;;;;;;;;;;11.91;100.00;101936.16;4999441;28;20003;-69
2023/09/27 02:46:07;;;;;;;;;;;;;;;11.82;100.00;101942.97;4990777;28;20039;-69
2023/09/27 02:48:32;;;;;;;;;;;;;;;11.77;100.00;101953.19;5006267;28;19922;-69
2023/09/27 02:50:57;;;;;;;;;;;;;;;11.76;100.00;101956.84;5005404;28;19956;-70
2023/09/27 02:53:23;;;;;;;;;;;;;;;11.73;100.00;101946.28;5003589;28;19948;-69
2023/09/27 02:55:48;;;;;;;;;;;;;;;11.68;100.00;101943.88;5002270;28;19925;-69
2023/09/27 02:58:13;;;;;;;;;;;;;;;11.68;100.00;101946.56;5003432;28;19950;-69
2023/09/27 03:00:40;;;;;;;;;;;;;;;11.70;100.00;101950.03;5000998;28;19971;-69
2023/09/27 03:03:07;;;;;;;;;;;;;;;11.76;100.00;101951.47;4984175;28;19924;-70
2023/09/27 03:05:35;;;;;;;;;;;;;;;11.80;100.00;101948.47;5007935;28;19921;-69
2023/09/27 03:08:00;;;;;;;;;;;;;;;11.82;100.00;101959.13;4999204;28;20024;-69
2023/09/27 03:10:26;;;;;;;;;;;;;;;11.84;100.00;101952.69;5007640;28;20467;-69
2023/09/27 03:12:51;;;;;;;;;;;;;;;11.82;100.00;101951.03;4986019;28;19928;-69
2023/09/27 03:15:17;;;;;;;;;;;;;;;11.70;100.00;101950.03;5004700;28;20395;-69
2023/09/27 03:17:42;;;;;;;;;;;;;;;11.70;100.00;101955.41;5002953;28;19922;-69
2023/09/27 03:20:10;;;;;;;;;;;;;;;11.73;100.00;101955.19;4991219;28;20269;-69
2023/09/27 03:22:38;;;;;;;;;;;;;;;11.75;100.00;101953.28;5000055;28;20463;-70
2023/09/27 03:25:03;;;;;;;;;;;;;;;11.72;100.00;101944.56;5009904;28;19917;-70
2023/09/27 03:27:29;;;;;;;;;;;;;;;11.55;100.00;101946.50;4999182;28;20242;-70
2023/09/27 03:29:54;;;;;;;;;;;;;;;11.48;100.00;101950.56;5011767;28;20129;-69
2023/09/27 03:32:19;;;;;;;;;;;;;;;11.50;100.00;101948.63;4990376;28;20694;-69
2023/09/27 03:34:45;;;;;;;;;;;;;;;11.37;100.00;101951.25;4986874;28;20340;-69
2023/09/27 03:37:10;;;;;;;;;;;;;;;11.22;100.00;101953.94;5006927;28;19925;-69
2023/09/27 03:39:35;;;;;;;;;;;;;;;11.08;100.00;101962.84;5002449;28;19928;-69
2023/09/27 03:42:01;;;;;;;;;;;;;;;10.86;100.00;101947.19;5001564;28;19921;-69
2023/09/27 03:44:27;;;;;;;;;;;;;;;10.88;100.00;101961.38;4999046;28;20399;-69
2023/09/27 03:46:52;;;;;;;;;;;;;;;10.89;100.00;101978.38;5009648;28;19921;-69
2023/09/27 03:49:17;;;;;;;;;;;;;;;10.90;100.00;101982.81;5005560;28;19925;-69
2023/09/27 03:51:42;;;;;;;;;;;;;;;10.93;100.00;101988.84;4998006;28;19956;-69
2023/09/27 03:54:07;;;;;;;;;;;;;;;11.00;100.00;101996.53;4982567;28;20023;-69
2023/09/27 03:56:33;;;;;;;;;;;;;;;11.07;100.00;101987.16;5005361;28;19925;-70
2023/09/27 03:58:58;;;;;;;;;;;;;;;11.17;100.00;101992.81;4981632;28;20285;-69
2023/09/27 04:01:23;;;;;;;;;;;;;;;11.19;100.00;101991.75;4980603;28;20384;-70
2023/09/27 04:03:48;;;;;;;;;;;;;;;11.17;100.00;101984.75;4981790;28;19918;-69
2023/09/27 04:06:13;;;;;;;;;;;;;;;11.18;100.00;101990.03;4979671;28;20340;-69
2023/09/27 04:08:39;;;;;;;;;;;;;;;11.19;100.00;101988.22;4987351;28;20095;-69
2023/09/27 04:11:06;;;;;;;;;;;;;;;11.20;100.00;101984.56;4979938;28;20296;-69
2023/09/27 04:13:32;;;;;;;;;;;;;;;11.20;100.00;101987.25;4983717;28;19932;-69
2023/09/27 04:15:58;;;;;;;;;;;;;;;11.08;100.00;101984.34;4978370;28;19924;-69
2023/09/27 04:18:23;;;;;;;;;;;;;;;10.92;100.00;101981.75;4981392;28;20220;-69
2023/09/27 04:20:48;;;;;;;;;;;;;;;10.79;100.00;101984.31;4981514;28;19925;-69
2023/09/27 04:23:13;;;;;;;;;;;;;;;10.71;100.00;101983.94;4978040;28;19922;-70
2023/09/27 04:25:39;;;;;;;;;;;;;;;10.70;100.00;101990.25;4981820;28;19928;-69
2023/09/27 04:28:04;;;;;;;;;;;;;;;10.69;100.00;101983.16;4988759;28;19927;-70
2023/09/27 04:30:30;;;;;;;;;;;;;;;10.70;100.00;101984.88;4978963;28;20028;-69
2023/09/27 04:32:55;;;;;;;;;;;;;;;10.71;100.00;101975.88;4988328;28;19921;-69
2023/09/27 04:35:20;;;;;;;;;;;;;;;10.71;100.00;101980.38;4978932;28;20142;-69
2023/09/27 04:37:46;;;;;;;;;;;;;;;10.69;100.00;101980.47;4982341;28;19922;-70
2023/09/27 04:40:11;;;;;;;;;;;;;;;10.73;100.00;101984.69;4984301;28;19918;-69
2023/09/27 04:42:39;;;;;;;;;;;;;;;10.82;100.00;101990.47;4976785;28;19953;-69
2023/09/27 04:45:06;;;;;;;;;;;;;;;10.85;100.00;101993.84;4987311;28;19924;-69
2023/09/27 04:47:31;;;;;;;;;;;;;;;10.90;100.00;101991.72;4978954;28;19925;-69
2023/09/27 04:49:56;;;;;;;;;;;;;;;10.97;100.00;102002.97;4978994;28;20290;-69
2023/09/27 04:52:22;;;;;;;;;;;;;;;10.99;100.00;102006.41;4985019;28;20339;-69
2023/09/27 04:54:47;;;;;;;;;;;;;;;11.03;100.00;102004.41;4982226;28;20455;-69
2023/09/27 04:57:13;;;;;;;;;;;;;;;11.07;100.00;102014.88;4986258;28;20432;-69
2023/09/27 04:59:38;;;;;;;;;;;;;;;11.13;100.00;102027.06;4988836;28;19963;-69
2023/09/27 05:02:03;;;;;;;;;;;;;;;11.22;100.00;102020.28;4981193;28;20031;-70
2023/09/27 05:04:28;;;;;;;;;;;;;;;11.25;100.00;102012.88;4983839;28;20273;-70
2023/09/27 05:06:54;;;;;;;;;;;;;;;11.32;100.00;101986.47;4996164;28;19976;-70
2023/09/27 05:09:19;;;;;;;;;;;;;;;11.38;100.00;101964.59;4995913;28;20115;-70
2023/09/27 05:11:46;;;;;;;;;;;;;;;11.40;100.00;101985.97;4973518;28;20401;-68
2023/09/27 05:14:11;;;;;;;;;;;;;;;11.47;100.00;101999.94;4999060;28;19936;-69
2023/09/27 05:16:37;;;;;;;;;;;;;;;11.40;100.00;101992.25;4979104;28;19922;-70
2023/09/27 05:19:02;;;;;;;;;;;;;;;11.40;100.00;101986.88;4995335;28;19922;-69
2023/09/27 05:21:27;;;;;;;;;;;;;;;11.38;100.00;101982.56;5000366;28;19914;-69
2023/09/27 05:23:52;;;;;;;;;;;;;;;11.34;100.00;101978.31;4984999;28;19917;-69
2023/09/27 05:26:18;;;;;;;;;;;;;;;11.32;100.00;101977.56;4996531;28;20959;-69
2023/09/27 05:28:43;;;;;;;;;;;;;;;11.22;100.00;101974.59;4995753;28;19918;-69
2023/09/27 05:31:09;;;;;;;;;;;;;;;11.12;100.00;101986.84;4995968;28;19971;-70
2023/09/27 05:33:34;;;;;;;;;;;;;;;11.05;100.00;101991.75;4996717;28;20292;-69
2023/09/27 05:35:59;;;;;;;;;;;;;;;11.00;100.00;101983.09;5004733;28;20724;-69
2023/09/27 05:38:24;;;;;;;;;;;;;;;10.92;100.00;101980.91;5004477;28;19980;-70
2023/09/27 05:40:50;;;;;;;;;;;;;;;10.92;100.00;101987.13;5004646;28;19999;-69
2023/09/27 05:43:15;;;;;;;;;;;;;;;10.96;100.00;101987.81;4995722;28;20182;-70
2023/09/27 05:45:40;;;;;;;;;;;;;;;10.93;100.00;101979.94;4998552;28;19939;-69
2023/09/27 05:48:05;;;;;;;;;;;;;;;10.95;100.00;101980.72;5006461;28;21240;-69
2023/09/27 05:50:31;;;;;;;;;;;;;;;10.98;100.00;101976.97;4997498;28;19930;-70
2023/09/27 05:52:56;;;;;;;;;;;;;;;10.94;100.00;101974.47;5005153;28;20569;-69
2023/09/27 05:55:21;;;;;;;;;;;;;;;10.96;100.00;101974.38;5001468;28;20055;-69
2023/09/27 05:57:47;;;;;;;;;;;;;;;11.00;100.00;101961.59;4999326;28;20368;-69
2023/09/27 06:00:26;;;;;;;;;;;;;;;10.99;100.00;101967.94;4981754;28;20019;-69
2023/09/27 06:02:51;;;;;;;;;;;;;;;10.99;100.00;101962.56;4999679;28;20238;-69
2023/09/27 06:05:16;;;;;;;;;;;;;;;10.97;100.00;101967.16;5001050;28;19924;-69
2023/09/27 06:07:42;;;;;;;;;;;;;;;10.97;100.00;101965.38;5002562;28;19921;-69
2023/09/27 06:10:08;;;;;;;;;;;;;;;11.04;100.00;101968.53;5006025;28;19929;-69
2023/09/27 06:12:33;;;;;;;;;;;;;;;11.12;100.00;101963.56;4999027;28;20004;-70
2023/09/27 06:14:59;;;;;;;;;;;;;;;11.20;100.00;101969.28;5006501;28;19921;-70
2023/09/27 06:17:24;;;;;;;;;;;;;;;11.24;100.00;101972.66;5004550;28;19917;-70
2023/09/27 06:19:49;;;;;;;;;;;;;;;11.24;100.00;101964.59;4990942;28;19924;-69
2023/09/27 06:22:16;;;;;;;;;;;;;;;11.26;100.00;101965.34;5002642;28;20348;-69
2023/09/27 06:24:41;;;;;;;;;;;;;;;11.29;100.00;101962.47;5001119;28;20016;-69
2023/09/27 06:27:07;;;;;;;;;;;;;;;11.35;100.00;101966.63;5001927;28;19966;-70
2023/09/27 06:29:33;;;;;;;;;;;;;;;11.43;100.00;101971.50;5007310;28;20582;-69
2023/09/27 06:31:58;;;;;;;;;;;;;;;11.28;100.00;101936.53;4998683;28;19921;-70
2023/09/27 06:34:23;;;;;;;;;;;;;;;11.65;100.00;101969.16;4982906;28;20028;-69
2023/09/27 06:36:49;;;;;;;;;;;;;;;11.83;100.00;101974.31;5005422;28;19928;-70
2023/09/27 06:39:15;;;;;;;;;;;;;;;11.99;100.00;101966.13;5002148;28;19957;-70
2023/09/27 06:41:41;;;;;;;;;;;;;;;12.09;100.00;101964.56;5000045;28;19925;-69
2023/09/27 06:44:06;;;;;;;;;;;;;;;12.21;100.00;101959.31;5000737;28;19921;-69
2023/09/27 06:46:32;;;;;;;;;;;;;;;12.26;100.00;101968.81;5003445;28;19968;-69
2023/09/27 06:48:58;;;;;;;;;;;;;;;12.33;100.00;101963.88;5000479;28;19921;-70
2023/09/27 06:51:24;;;;;;;;;;;;;;;12.42;100.00;101960.56;5004910;28;19925;-69
2023/09/27 06:53:49;;;;;;;;;;;;;;;12.60;100.00;101966.50;5000277;28;19965;-69
2023/09/27 06:56:14;;;;;;;;;;;;;;;12.70;100.00;101968.59;4981593;28;19924;-69
2023/09/27 06:58:40;;;;;;;;;;;;;;;12.81;100.00;101971.41;4998775;28;19925;-69
2023/09/27 07:01:05;;;;;;;;;;;;;;;12.96;100.00;101974.88;5000141;28;19917;-69
2023/09/27 07:03:33;;;;;;;;;;;;;;;13.09;100.00;101974.88;5000147;28;19921;-69
2023/09/27 07:05:58;;;;;;;;;;;;;;;13.19;100.00;101983.16;5002407;28;20400;-70
2023/09/27 07:08:23;;;;;;;;;;;;;;;13.28;100.00;101978.94;5001025;28;19921;-69
2023/09/27 07:10:49;;;;;;;;;;;;;;;13.35;100.00;101969.44;5006298;28;19992;-69
2023/09/27 07:13:15;;;;;;;;;;;;;;;13.39;100.00;101965.53;5000996;28;20019;-69
2023/09/27 07:15:40;;;;;;;;;;;;;;;13.47;100.00;101962.34;5008171;28;19980;-68
2023/09/27 07:18:05;;;;;;;;;;;;;;;13.58;100.00;101965.09;5004238;28;20825;-69
2023/09/27 07:20:36;;;;;;;;;;;;;;;13.69;100.00;101974.28;5002307;28;20332;-69
2023/09/27 07:23:05;;;;;;;;;;;;;;;13.68;100.00;101978.78;5009424;28;20012;-68
2023/09/27 07:25:34;;;;;;;;;;;;;;;13.69;100.00;101985.06;5005194;28;19925;-69
2023/09/27 07:28:00;;;;;;;;;;;;;;;13.75;100.00;101995.41;5003230;28;19924;-69
2023/09/27 07:30:26;;;;;;;;;;;;;;;13.77;100.00;102001.56;5008495;28;20450;-69
2023/09/27 07:32:51;;;;;;;;;;;;;;;13.75;100.00;102001.66;5000526;28;19985;-69
2023/09/27 07:35:18;;;;;;;;;;;;;;;13.76;100.00;101999.84;4999276;28;20306;-69
2023/09/27 07:37:44;;;;;;;;;;;;;;;13.85;100.00;101998.31;4997438;28;19921;-69
2023/09/27 07:40:10;;;;;;;;;;;;;;;13.94;100.00;102006.59;5003890;28;19929;-69
2023/09/27 07:42:36;;;;;;;;;;;;;;;14.07;100.00;102001.13;4994995;28;19914;-69
2023/09/27 07:45:01;;;;;;;;;;;;;;;14.16;100.00;101993.34;4999279;28;19940;-69
2023/09/27 07:47:27;;;;;;;;;;;;;;;14.25;100.00;101984.50;5001759;28;19917;-69
2023/09/27 07:49:52;;;;;;;;;;;;;;;14.29;100.00;101979.75;5008763;28;19926;-70
2023/09/27 07:52:17;;;;;;;;;;;;;;;14.35;100.00;101973.88;5000646;28;20510;-69
2023/09/27 07:54:45;;;;;;;;;;;;;;;14.41;100.00;101970.72;5003734;28;20423;-69
2023/09/27 07:57:11;;;;;;;;;;;;;;;14.47;100.00;101972.94;5000564;28;19925;-69
2023/09/27 07:59:36;;;;;;;;;;;;;;;14.51;100.00;101970.88;5000318;28;19925;-69
2023/09/27 08:02:01;;;;;;;;;;;;;;;14.58;100.00;101966.72;5005295;28;19979;-70
2023/09/27 08:04:26;;;;;;;;;;;;;;;14.66;100.00;101971.53;5000994;28;20043;-69
2023/09/27 08:06:52;;;;;;;;;;;;;;;14.73;100.00;101988.16;5003691;28;20023;-69
2023/09/27 08:09:19;;;;;;;;;;;;;;;14.79;100.00;101982.28;5005493;28;19991;-70
2023/09/27 08:11:44;;;;;;;;;;;;;;;14.95;100.00;101977.41;5004292;28;20278;-69
2023/09/27 08:14:11;;;;;;;;;;;;;;;14.83;100.00;101951.31;5006932;28;20423;-69
2023/09/27 08:16:37;;;;;;;;;;;;;;;15.12;100.00;101983.31;4997516;28;19917;-69
2023/09/27 08:19:02;;;;;;;;;;;;;;;15.19;100.00;101978.28;4998143;28;20053;-69
2023/09/27 08:21:27;;;;;;;;;;;;;;;15.21;100.00;101952.84;4998771;28;20323;-70
2023/09/27 08:23:52;;;;;;;;;;;;;;;15.54;100.00;101983.56;5004911;28;20246;-69
2023/09/27 08:26:18;;;;;;;;;;;;;;;15.68;100.00;101978.88;5001152;28;19925;-71
2023/09/27 08:28:43;;;;;;;;;;;;;;;15.81;100.00;101978.75;5006861;28;19921;-70
2023/09/27 08:31:09;;;;;;;;;;;;;;;15.86;100.00;101987.38;4999656;28;19928;-69
2023/09/27 08:33:34;;;;;;;;;;;;;;;16.01;100.00;101983.41;4987373;28;20372;-70
2023/09/27 08:36:00;;;;;;;;;;;;;;;16.08;100.00;101996.44;5003411;28;19928;-70
2023/09/27 08:38:25;;;;;;;;;;;;;;;16.09;100.00;101988.16;4999714;28;20276;-69
2023/09/27 08:40:51;;;;;;;;;;;;;;;16.36;100.00;102002.25;5003596;28;20016;-70
2023/09/27 08:43:16;;;;;;;;;;;;;;;16.66;100.00;102003.34;4995785;28;19921;-70
2023/09/27 08:45:44;;;;;;;;;;;;;;;17.02;100.00;102007.50;4996393;28;19925;-70
2023/09/27 08:48:13;;;;;;;;;;;;;;;17.34;100.00;102016.50;4997833;28;19921;-71
2023/09/27 08:50:38;;;;;;;;;;;;;;;17.57;100.00;102014.47;4997919;28;20410;-71
2023/09/27 08:53:04;;;;;;;;;;;;;;;17.85;100.00;102012.00;5000175;28;19921;-71
2023/09/27 08:55:29;;;;;;;;;;;;;;;18.02;100.00;102018.59;5000737;28;20424;-70
2023/09/27 08:57:55;;;;;;;;;;;;;;;18.21;100.00;102006.06;4996280;28;19969;-70
2023/09/27 09:00:22;;;;;;;;;;;;;;;18.57;100.00;102019.94;4995377;28;19929;-70
2023/09/27 09:02:49;;;;;;;;;;;;;;;18.80;100.00;102012.34;5002606;28;19921;-71
2023/09/27 09:05:15;;;;;;;;;;;;;;;18.94;100.00;102002.00;4998956;28;19921;-70
2023/09/27 09:07:40;;;;;;;;;;;;;;;18.99;100.00;102000.59;5004733;28;19959;-70
2023/09/27 09:10:09;;;;;;;;;;;;;;;18.98;100.00;101998.00;5005738;28;19971;-71
2023/09/27 09:12:34;;;;;;;;;;;;;;;18.90;100.00;101998.72;5004923;28;20661;-70
2023/09/27 09:14:59;;;;;;;;;;;;;;;19.00;100.00;101990.56;5004902;28;19986;-71
2023/09/27 09:17:34;;;;;;;;;;;;;;;19.09;100.00;101991.53;5000330;28;20135;-71
2023/09/27 09:20:16;;;;;;;;;;;;;;;19.22;100.00;101996.66;4996629;28;19929;-71
2023/09/27 09:22:41;;;;;;;;;;;;;;;19.66;100.00;101983.28;5006769;28;19924;-70
2023/09/27 09:25:07;;;;;;;;;;;;;;;20.04;100.00;101985.97;5002143;28;19921;-71
2023/09/27 09:27:32;;;;;;;;;;;;;;;20.18;100.00;101981.84;4979844;28;19941;-69
2023/09/27 09:29:58;;;;;;;;;;;;;;;20.37;100.00;101970.75;4979885;28;20429;-70
2023/09/27 09:32:25;;;;;;;;;;;;;;;20.44;100.00;101959.22;5000933;28;19925;-70
2023/09/27 09:34:51;;;;;;;;;;;;;;;20.64;100.00;101963.47;4990027;28;20141;-71
2023/09/27 09:37:17;;;;;;;;;;;;;;;20.58;100.00;101955.09;4990325;28;20287;-71
2023/09/27 09:39:43;;;;;;;;;;;;;;;20.33;100.00;101963.91;5008271;28;19929;-71
2023/09/27 09:42:08;;;;;;;;;;;;;;;20.22;100.00;101958.72;4999308;28;20780;-70
2023/09/27 09:44:33;;;;;;;;;;;;;;;20.18;100.00;101957.31;5001472;28;19974;-71
2023/09/27 09:47:07;;;;;;;;;;;;;;;20.23;100.00;101958.53;4988892;28;19941;-71
2023/09/27 09:49:34;;;;;;;;;;;;;;;20.42;100.00;101953.91;5005122;28;19925;-70
2023/09/27 09:51:59;;;;;;;;;;;;;;;20.35;100.00;101945.50;5004399;28;19956;-70
2023/09/27 09:54:28;;;;;;;;;;;;;;;20.48;100.00;101944.25;5003101;28;20347;-70
2023/09/27 09:57:01;;;;;;;;;;;;;;;20.42;100.00;101940.28;5005741;28;19921;-69
2023/09/27 09:59:28;;;;;;;;;;;;;;;20.35;100.00;101939.22;4986623;28;19932;-70
2023/09/27 10:01:54;;;;;;;;;;;;;;;20.49;100.00;101932.34;4988846;28;19963;-70
2023/09/27 10:04:20;;;;;;;;;;;;;;;20.85;100.00;101923.22;5003602;28;19965;-70
2023/09/27 10:06:46;;;;;;;;;;;;;;;21.10;100.00;101929.66;4999619;28;19921;-70
2023/09/27 10:09:14;;;;;;;;;;;;;;;21.36;100.00;101915.97;4998713;28;19964;-70
2023/09/27 10:11:39;;;;;;;;;;;;;;;21.36;100.00;101904.19;5004399;28;19925;-71
2023/09/27 10:14:05;;;;;;;;;;;;;;;21.48;100.00;101902.88;5002688;28;19967;-71
2023/09/27 10:16:30;;;;;;;;;;;;;;;21.56;100.00;101894.69;5001819;28;19936;-70
2023/09/27 10:18:55;;;;;;;;;;;;;;;21.70;100.00;101895.97;5002560;28;19921;-70
2023/09/27 10:21:21;;;;;;;;;;;;;;;21.63;100.00;101886.72;4979082;28;20237;-70
2023/09/27 10:23:46;;;;;;;;;;;;;;;21.49;100.00;101893.66;4987297;28;19922;-71
2023/09/27 10:26:22;;;;;;;;;;;;;;;21.49;100.00;101884.59;5002081;28;19922;-71
2023/09/27 10:29:06;;;;;;;;;;;;;;;21.80;100.00;101878.53;5000357;28;19918;-70
2023/09/27 10:31:32;;;;;;;;;;;;;;;22.32;100.00;101875.47;5000098;28;19929;-70
2023/09/27 10:33:57;;;;;;;;;;;;;;;22.51;100.00;101856.16;4999189;28;20571;-70
2023/09/27 10:36:23;;;;;;;;;;;;;;;22.73;100.00;101881.94;4970356;28;20295;-71
2023/09/27 10:38:51;;;;;;;;;;;;;;;22.97;100.00;101883.72;4984413;28;20426;-70
2023/09/27 10:41:31;;;;;;;;;;;;;;;23.07;100.00;101883.53;4999172;28;19967;-70
2023/09/27 10:43:56;;;;;;;;;;;;;;;22.85;100.00;101890.63;4997370;28;20316;-71
2023/09/27 10:46:22;;;;;;;;;;;;;;;22.91;100.00;101887.16;4980934;28;19921;-70
2023/09/27 10:48:56;;;;;;;;;;;;;;;22.85;100.00;101876.94;5000316;28;19922;-71
2023/09/27 10:51:21;;;;;;;;;;;;;;;22.54;100.00;101875.81;4998641;28;19932;-71
2023/09/27 10:53:48;;;;;;;;;;;;;;;22.83;100.00;101870.78;4999764;28;19921;-70
2023/09/27 10:56:14;;;;;;;;;;;;;;;23.00;100.00;101863.38;4992943;28;19921;-71
2023/09/27 10:58:46;;;;;;;;;;;;;;;22.75;100.00;101853.34;5002348;28;20376;-71
2023/09/27 11:01:15;;;;;;;;;;;;;;;22.89;100.00;101839.97;5000767;28;20377;-70
2023/09/27 11:03:41;;;;;;;;;;;;;;;23.14;100.00;101834.38;4981179;28;20371;-69
2023/09/27 11:06:09;;;;;;;;;;;;;;;22.91;100.00;101830.53;5004401;28;20392;-70
2023/09/27 11:08:34;;;;;;;;;;;;;;;22.69;100.00;101823.94;5003745;28;19964;-71
2023/09/27 11:11:00;;;;;;;;;;;;;;;22.59;100.00;101815.94;4998471;28;19969;-70
2023/09/27 11:13:29;;;;;;;;;;;;;;;22.61;100.00;101824.81;4999816;28;19922;-70
2023/09/27 11:15:54;;;;;;;;;;;;;;;23.01;100.00;101824.84;5001426;28;19922;-70
2023/09/27 11:18:19;;;;;;;;;;;;;;;23.21;100.00;101828.03;4997736;28;19917;-70
2023/09/27 11:20:45;;;;;;;;;;;;;;;23.38;100.00;101816.13;4997108;28;19987;-71
2023/09/27 11:23:10;;;;;;;;;;;;;;;23.43;100.00;101808.22;5005134;28;19921;-71
2023/09/27 11:25:36;;;;;;;;;;;;;;;23.21;100.00;101800.63;5004045;28;20000;-71
2023/09/27 11:28:02;;;;;;;;;;;;;;;23.04;100.00;101808.06;5006014;28;19963;-71
2023/09/27 11:30:30;;;;;;;;;;;;;;;22.98;100.00;101799.72;5009071;28;20019;-70
2023/09/27 11:32:55;;;;;;;;;;;;;;;23.14;100.00;101796.88;4980485;28;20261;-70
2023/09/27 11:35:20;;;;;;;;;;;;;;;22.97;100.00;101792.53;4996519;28;20450;-71
2023/09/27 11:37:47;;;;;;;;;;;;;;;22.99;100.00;101798.69;5004318;28;19968;-70
2023/09/27 11:40:13;;;;;;;;;;;;;;;23.27;100.00;101790.84;5001100;28;19921;-70
2023/09/27 11:42:38;;;;;;;;;;;;;;;23.95;96.55;101791.00;4996688;28;19959;-70
2023/09/27 11:45:04;;;;;;;;;;;;;;;24.48;88.75;101784.66;5001951;28;20079;-71
2023/09/27 11:47:29;;;;;;;;;;;;;;;25.32;84.83;101785.28;4996668;28;19963;-70
2023/09/27 11:49:55;;;;;;;;;;;;;;;26.11;74.69;101778.00;5004886;28;20299;-70
2023/09/27 11:52:20;;;;;;;;;;;;;;;26.01;69.96;101769.22;4997880;28;19929;-69
2023/09/27 11:54:45;;;;;;;;;;;;;;;26.15;75.68;101760.06;5002041;28;19968;-70
2023/09/27 11:57:10;;;;;;;;;;;;;;;26.67;67.79;101754.19;5005659;28;20000;-70
2023/09/27 11:59:37;;;;;;;;;;;;;;;26.85;67.08;101755.56;4998527;28;20025;-70
2023/09/27 12:02:02;;;;;;;;;;;;;;;26.82;72.01;101747.72;5000747;28;19921;-71
2023/09/27 12:04:28;;;;;;;;;;;;;;;26.58;65.85;101748.03;4985191;28;19922;-71
2023/09/27 12:06:53;;;;;;;;;;;;;;;27.23;59.64;101736.59;5007106;28;20334;-70
2023/09/27 12:09:19;;;;;;;;;;;;;;;28.21;60.24;101736.19;5000979;28;19932;-71
2023/09/27 12:11:44;;;;;;;;;;;;;;;27.81;61.18;101740.69;4999152;28;19922;-71
2023/09/27 12:14:09;;;;;;;;;;;;;;;27.75;60.55;101724.16;5007041;28;19963;-71
2023/09/27 12:16:35;;;;;;;;;;;;;;;27.96;60.67;101714.75;5010756;28;19921;-71
2023/09/27 12:19:00;;;;;;;;;;;;;;;28.34;63.48;101713.25;5001975;28;19958;-71
2023/09/27 12:21:25;;;;;;;;;;;;;;;28.74;55.82;101696.47;5008948;28;20136;-70